createdAt,value
2018-06-08T00:00:45.358Z,83.20
2018-06-08T00:03:13.991Z,83.30
2018-06-08T00:05:42.559Z,81.70
2018-06-08T00:08:11.732Z,84.00
2018-06-08T00:10:40.284Z,82.60
2018-06-08T00:13:08.923Z,82.70
2018-06-08T00:18:06.100Z,84.30
2018-06-08T00:20:34.660Z,82.10
2018-06-08T00:23:03.271Z,84.40
2018-06-08T00:25:31.846Z,85.10
2018-06-08T00:28:00.427Z,84.60
2018-06-08T00:30:28.984Z,83.00
2018-06-08T00:32:57.596Z,83.00
2018-06-08T00:35:26.207Z,81.80
2018-06-08T00:37:54.790Z,83.90
2018-06-08T00:40:23.557Z,81.00
2018-06-08T00:42:52.184Z,81.70
2018-06-08T00:45:20.803Z,81.90
2018-06-08T00:47:49.354Z,81.40
2018-06-08T00:50:17.945Z,82.00
2018-06-08T00:52:46.598Z,83.20
2018-06-08T00:57:43.442Z,85.50
2018-06-08T01:00:12.055Z,85.00
2018-06-08T01:02:40.691Z,82.30
2018-06-08T01:05:09.402Z,83.10
2018-06-08T01:07:38.033Z,83.50
2018-06-08T01:10:06.650Z,83.40
2018-06-08T01:12:35.242Z,82.00
2018-06-08T01:15:03.871Z,81.90
2018-06-08T01:17:32.473Z,81.80
2018-06-08T01:20:01.051Z,81.50
2018-06-08T01:22:29.654Z,82.90
2018-06-08T01:24:58.292Z,83.00
2018-06-08T01:27:26.856Z,82.80
2018-06-08T01:29:55.458Z,83.70
2018-06-08T01:32:24.083Z,82.50
2018-06-08T01:37:20.879Z,85.70
2018-06-08T01:39:49.471Z,85.60
2018-06-08T01:42:18.046Z,83.00
2018-06-08T01:44:46.667Z,86.00
2018-06-08T01:47:15.218Z,87.50
2018-06-08T01:49:43.817Z,84.20
2018-06-08T01:52:12.494Z,82.60
2018-06-08T01:54:41.075Z,82.90
2018-06-08T01:57:09.706Z,84.40
2018-06-08T01:59:38.327Z,84.30
2018-06-08T02:02:06.968Z,82.50
2018-06-08T02:04:35.586Z,83.10
2018-06-08T02:07:04.237Z,84.20
2018-06-08T02:09:32.850Z,83.10
2018-06-08T02:12:01.472Z,82.60
2018-06-08T02:14:30.050Z,82.20
2018-06-08T02:16:58.646Z,85.10
2018-06-08T02:19:27.218Z,85.80
2018-06-08T02:21:55.843Z,82.70
2018-06-08T02:24:24.405Z,82.80
2018-06-08T02:26:52.982Z,84.90
2018-06-08T02:29:21.567Z,85.00
2018-06-08T02:31:50.145Z,85.70
2018-06-08T02:34:18.713Z,83.60
2018-06-08T02:36:47.294Z,82.90
2018-06-08T02:39:15.859Z,81.90
2018-06-08T02:41:44.499Z,82.90
2018-06-08T02:44:13.058Z,82.80
2018-06-08T02:46:41.650Z,83.20
2018-06-08T02:49:10.210Z,83.20
2018-06-08T02:51:38.902Z,86.50
2018-06-08T02:54:07.496Z,84.50
2018-06-08T02:56:36.094Z,84.10
2018-06-08T02:59:04.688Z,82.70
2018-06-08T03:01:33.280Z,81.00
2018-06-08T03:04:01.847Z,83.60
2018-06-08T03:06:30.423Z,82.60
2018-06-08T03:08:59.016Z,83.00
2018-06-08T03:11:27.660Z,83.30
2018-06-08T03:13:56.251Z,83.90
2018-06-08T03:16:24.840Z,84.60
2018-06-08T03:18:53.451Z,83.80
2018-06-08T03:21:22.037Z,83.30
2018-06-08T03:23:50.618Z,84.10
2018-06-08T03:26:19.183Z,82.10
2018-06-08T03:28:47.790Z,87.10
2018-06-08T03:31:16.351Z,82.90
2018-06-08T03:33:44.956Z,81.10
2018-06-08T03:36:13.564Z,80.90
2018-06-08T03:38:42.187Z,81.60
2018-06-08T03:41:10.758Z,82.60
2018-06-08T03:43:39.357Z,85.30
2018-06-08T03:46:07.942Z,82.00
2018-06-08T03:48:36.548Z,81.90
2018-06-08T03:51:05.115Z,83.30
2018-06-08T03:53:33.693Z,84.50
2018-06-08T03:56:02.304Z,83.70
2018-06-08T03:58:30.868Z,83.00
2018-06-08T04:00:59.430Z,84.50
2018-06-08T04:03:28.073Z,86.70
2018-06-08T04:05:56.638Z,85.80
2018-06-08T04:08:25.247Z,86.30
2018-06-08T04:10:53.825Z,83.90
2018-06-08T04:13:22.451Z,84.80
2018-06-08T04:15:51.215Z,88.40
2018-06-08T04:18:19.802Z,85.60
2018-06-08T04:20:48.367Z,88.10
2018-06-08T04:23:16.938Z,85.00
2018-06-08T04:25:45.542Z,85.60
2018-06-08T04:28:14.120Z,88.90
2018-06-08T04:30:42.678Z,85.70
2018-06-08T04:33:11.229Z,88.90
2018-06-08T04:35:39.868Z,83.10
2018-06-08T04:38:08.496Z,86.40
2018-06-08T04:40:37.099Z,85.50
2018-06-08T04:43:05.692Z,87.20
2018-06-08T04:45:34.296Z,86.20
2018-06-08T04:48:02.913Z,88.00
2018-06-08T04:50:31.507Z,84.70
2018-06-08T04:53:00.063Z,84.30
2018-06-08T04:55:28.667Z,86.70
2018-06-08T04:57:57.223Z,88.10
2018-06-08T05:00:25.799Z,90.10
2018-06-08T05:02:54.371Z,89.70
2018-06-08T05:05:22.973Z,87.10
2018-06-08T05:07:51.555Z,89.10
2018-06-08T05:10:20.140Z,90.50
2018-06-08T05:12:48.734Z,86.10
2018-06-08T05:15:17.310Z,85.10
2018-06-08T05:17:45.887Z,90.00
2018-06-08T05:20:14.486Z,90.20
2018-06-08T05:22:43.075Z,89.80
2018-06-08T05:25:11.653Z,90.60
2018-06-08T05:27:40.236Z,89.00
2018-06-08T05:30:16.702Z,88.70
2018-06-08T05:32:45.337Z,88.80
2018-06-08T05:37:42.185Z,90.00
2018-06-08T05:40:10.777Z,89.30
2018-06-08T05:45:08.150Z,87.50
2018-06-08T05:47:36.735Z,87.70
2018-06-08T05:50:05.444Z,87.50
2018-06-08T05:52:34.009Z,84.70
2018-06-08T05:55:02.700Z,85.70
2018-06-08T05:57:31.248Z,87.80
2018-06-08T05:59:59.837Z,84.20
2018-06-08T06:02:28.450Z,83.10
2018-06-08T06:04:57.056Z,81.70
2018-06-08T06:07:25.675Z,79.40
2018-06-08T06:09:54.263Z,77.90
2018-06-08T06:12:22.879Z,77.60
2018-06-08T06:14:52.072Z,75.60
2018-06-08T06:17:20.646Z,73.10
2018-06-08T06:19:49.289Z,72.80
2018-06-08T06:22:17.873Z,69.80
2018-06-08T06:24:46.542Z,68.10
2018-06-08T06:27:15.134Z,65.60
2018-06-08T06:29:43.698Z,65.70
2018-06-08T06:32:12.301Z,63.60
2018-06-08T06:34:41.785Z,63.30
2018-06-08T06:37:10.387Z,63.00
2018-06-08T06:39:38.997Z,61.70
2018-06-08T06:42:07.602Z,60.90
2018-06-08T06:47:04.477Z,58.40
2018-06-08T06:49:33.073Z,58.50
2018-06-08T06:52:01.675Z,59.60
2018-06-08T06:54:30.256Z,58.10
2018-06-08T06:56:58.895Z,58.60
2018-06-08T06:59:27.500Z,59.90
2018-06-08T07:01:58.937Z,58.80
2018-06-08T07:04:27.663Z,59.30
2018-06-08T07:06:56.264Z,59.60
2018-06-08T07:09:24.862Z,60.90
2018-06-08T07:11:53.475Z,61.80
2018-06-08T07:14:22.031Z,61.80
2018-06-08T07:16:50.620Z,60.00
2018-06-08T07:19:19.198Z,58.90
2018-06-08T07:21:47.786Z,60.30
2018-06-08T07:26:44.591Z,60.10
2018-06-08T07:29:13.208Z,58.20
2018-06-08T07:31:41.965Z,58.80
2018-06-08T07:34:10.550Z,58.80
2018-06-08T07:36:39.206Z,56.90
2018-06-08T07:39:08.074Z,56.70
2018-06-08T07:44:05.693Z,52.50
2018-06-08T07:46:34.222Z,52.60
2018-06-08T07:49:02.894Z,53.70
2018-06-08T07:51:31.507Z,50.30
2018-06-08T07:54:00.456Z,51.30
2018-06-08T07:56:29.014Z,53.10
2018-06-08T07:58:57.608Z,50.30
2018-06-08T08:01:26.175Z,49.80
2018-06-08T08:03:54.808Z,49.50
2018-06-08T08:06:23.553Z,48.40
2018-06-08T08:08:52.543Z,45.90
2018-06-08T08:11:21.098Z,46.70
2018-06-08T08:13:49.930Z,47.90
2018-06-08T08:16:20.335Z,47.20
2018-06-08T08:18:48.938Z,46.10
2018-06-08T08:21:17.540Z,45.60
2018-06-08T08:23:46.137Z,46.20
2018-06-08T08:26:14.724Z,42.20
2018-06-08T08:28:43.829Z,45.60
2018-06-08T08:31:12.888Z,44.10
2018-06-08T08:33:41.741Z,44.20
2018-06-08T08:36:10.282Z,43.20
2018-06-08T08:41:07.154Z,43.80
2018-06-08T08:43:35.792Z,42.20
2018-06-08T08:46:04.351Z,43.10
2018-06-08T08:48:32.974Z,40.70
2018-06-08T08:51:01.555Z,40.80
2018-06-08T08:53:30.221Z,44.40
2018-06-08T08:55:58.785Z,41.70
2018-06-08T08:58:27.383Z,41.00
2018-06-08T09:00:55.985Z,43.20
2018-06-08T09:03:24.533Z,39.60
2018-06-08T09:05:53.102Z,42.70
2018-06-08T09:08:21.655Z,41.30
2018-06-08T09:10:50.418Z,41.50
2018-06-08T09:13:19.028Z,43.20
2018-06-08T09:15:47.658Z,45.40
2018-06-08T09:18:16.257Z,44.90
2018-06-08T09:20:44.990Z,47.70
2018-06-08T09:23:13.557Z,46.60
2018-06-08T09:25:42.156Z,47.60
2018-06-08T09:28:10.732Z,47.30
2018-06-08T09:30:39.390Z,48.10
2018-06-08T09:33:07.997Z,47.30
2018-06-08T09:35:36.574Z,48.30
2018-06-08T09:38:05.139Z,47.60
2018-06-08T09:40:33.758Z,47.90
2018-06-08T09:43:02.341Z,49.20
2018-06-08T09:45:30.920Z,49.90
2018-06-08T09:47:59.495Z,49.40
2018-06-08T09:50:28.362Z,50.80
2018-06-08T09:52:56.908Z,49.30
2018-06-08T09:55:26.616Z,47.80
2018-06-08T09:57:55.159Z,49.80
2018-06-08T10:00:29.233Z,50.80
2018-06-08T10:02:57.801Z,49.20
2018-06-08T10:05:26.474Z,50.80
2018-06-08T10:07:55.042Z,49.70
2018-06-08T10:10:23.688Z,49.80
2018-06-08T10:12:52.287Z,48.50
2018-06-08T10:17:49.193Z,49.40
2018-06-08T10:20:18.080Z,48.80
2018-06-08T10:22:46.696Z,48.40
2018-06-08T10:25:15.271Z,49.10
2018-06-08T10:27:43.858Z,48.90
2018-06-08T10:30:12.440Z,49.20
2018-06-08T10:32:41.222Z,50.30
2018-06-08T10:35:09.833Z,49.50
2018-06-08T10:37:38.410Z,48.90
2018-06-08T10:40:07.016Z,49.70
2018-06-08T10:42:35.617Z,50.10
2018-06-08T10:45:04.250Z,50.60
2018-06-08T10:47:32.827Z,48.50
2018-06-08T10:50:01.383Z,50.20
2018-06-08T10:52:29.962Z,50.30
2018-06-08T10:54:58.968Z,49.60
2018-06-08T10:57:30.362Z,49.90
2018-06-08T10:59:59.167Z,50.40
2018-06-08T11:02:27.762Z,50.80
2018-06-08T11:04:56.322Z,50.40
2018-06-08T11:07:24.906Z,50.70
2018-06-08T11:09:53.462Z,50.50
2018-06-08T11:12:22.060Z,50.50
2018-06-08T11:17:19.099Z,51.00
2018-06-08T11:19:47.693Z,51.00
2018-06-08T11:22:16.266Z,50.50
2018-06-08T11:24:44.922Z,50.20
2018-06-08T11:27:13.506Z,50.70
2018-06-08T11:29:42.106Z,50.70
2018-06-08T11:32:10.721Z,50.80
2018-06-08T11:34:39.304Z,51.10
2018-06-08T11:37:07.921Z,51.60
2018-06-08T11:39:36.487Z,52.30
2018-06-08T11:42:05.159Z,51.80
2018-06-08T11:44:33.795Z,52.00
2018-06-08T11:47:02.387Z,51.40
2018-06-08T11:49:30.950Z,52.80
2018-06-08T11:51:59.524Z,52.30
2018-06-08T11:54:28.116Z,53.20
2018-06-08T11:56:56.682Z,51.10
2018-06-08T11:59:25.284Z,51.30
2018-06-08T12:01:53.861Z,52.40
2018-06-08T12:04:22.575Z,50.80
2018-06-08T12:06:51.131Z,51.90
2018-06-08T12:09:19.713Z,52.20
2018-06-08T12:11:48.303Z,52.70
2018-06-08T12:14:16.930Z,51.80
2018-06-08T12:16:46.050Z,51.10
2018-06-08T12:19:14.650Z,51.10
2018-06-08T12:21:43.194Z,51.50
2018-06-08T12:24:12.391Z,50.60
2018-06-08T12:26:40.954Z,50.60
2018-06-08T12:29:09.551Z,51.00
2018-06-08T12:31:38.110Z,52.60
2018-06-08T12:34:06.690Z,52.10
2018-06-08T12:36:35.279Z,51.50
2018-06-08T12:39:04.336Z,51.10
2018-06-08T12:41:32.889Z,50.40
2018-06-08T12:46:30.097Z,51.50
2018-06-08T12:48:58.753Z,51.30
2018-06-08T12:51:27.413Z,50.60
2018-06-08T12:53:55.893Z,49.40
2018-06-08T12:56:24.489Z,50.70
2018-06-08T12:58:53.122Z,51.70
2018-06-08T13:01:21.698Z,52.00
2018-06-08T13:03:50.286Z,51.70
2018-06-08T13:06:19.406Z,52.30
2018-06-08T13:08:48.073Z,51.10
2018-06-08T13:11:17.225Z,50.50
2018-06-08T13:13:45.852Z,50.70
2018-06-08T13:16:14.710Z,50.80
2018-06-08T13:18:43.303Z,50.80
2018-06-08T13:21:12.488Z,51.50
2018-06-08T13:23:41.157Z,50.80
2018-06-08T13:28:38.879Z,50.80
2018-06-08T13:31:07.517Z,50.30
2018-06-08T13:36:04.366Z,50.60
2018-06-08T13:38:33.032Z,51.40
2018-06-08T13:41:01.657Z,51.30
2018-06-08T13:43:30.239Z,51.40
2018-06-08T13:48:27.054Z,52.40
2018-06-08T13:50:55.635Z,51.60
2018-06-08T13:53:24.271Z,51.30
2018-06-08T13:55:52.887Z,52.30
2018-06-08T13:58:21.475Z,51.80
2018-06-08T14:00:50.079Z,51.40
2018-06-08T14:03:18.642Z,51.80
2018-06-08T14:05:47.218Z,51.40
2018-06-08T14:08:15.786Z,50.90
2018-06-08T14:10:44.397Z,51.20
2018-06-08T14:13:12.982Z,52.10
2018-06-08T14:15:41.623Z,50.10
2018-06-08T14:18:10.777Z,50.20
2018-06-08T14:20:39.382Z,50.80
2018-06-08T14:25:36.242Z,50.10
2018-06-08T14:28:04.839Z,50.90
2018-06-08T14:30:33.410Z,51.50
2018-06-08T14:33:02.051Z,51.10
2018-06-08T14:35:30.658Z,51.50
2018-06-08T14:37:59.252Z,51.00
2018-06-08T14:42:56.092Z,51.10
2018-06-08T14:45:24.741Z,50.80
2018-06-08T14:47:53.322Z,51.30
2018-06-08T14:50:21.925Z,50.90
2018-06-08T14:52:50.552Z,49.70
2018-06-08T14:55:19.128Z,49.90
2018-06-08T14:57:47.712Z,49.90
2018-06-08T15:00:16.312Z,50.50
2018-06-08T15:02:44.932Z,50.50
2018-06-08T15:05:13.559Z,50.50
2018-06-08T15:10:10.485Z,50.20
2018-06-08T15:12:39.071Z,50.60
2018-06-08T15:15:07.667Z,51.20
2018-06-08T15:17:36.309Z,51.50
2018-06-08T15:20:04.903Z,52.00
2018-06-08T15:22:33.444Z,51.90
2018-06-08T15:25:02.000Z,51.40
2018-06-08T15:27:30.619Z,52.10
2018-06-08T15:29:59.174Z,50.90
2018-06-08T15:32:27.767Z,51.10
2018-06-08T15:37:24.605Z,51.10
2018-06-08T15:39:53.180Z,50.90
2018-06-08T15:42:21.778Z,49.80
2018-06-08T15:44:50.321Z,50.30
2018-06-08T15:47:18.952Z,49.60
2018-06-08T15:49:47.523Z,50.50
2018-06-08T15:52:16.097Z,51.70
2018-06-08T15:54:44.654Z,50.80
2018-06-08T15:57:13.243Z,50.20
2018-06-08T15:59:41.815Z,51.80
2018-06-08T16:02:10.374Z,50.80
2018-06-08T16:04:38.935Z,51.50
2018-06-08T16:07:07.561Z,51.00
2018-06-08T16:09:36.151Z,51.50
2018-06-08T16:12:04.890Z,51.60
2018-06-08T16:17:02.379Z,52.00
2018-06-08T16:19:30.960Z,51.60
2018-06-08T16:24:27.833Z,51.90
2018-06-08T16:26:56.420Z,51.40
2018-06-08T16:29:25.042Z,51.60
2018-06-08T16:31:53.655Z,51.30
2018-06-08T16:34:22.324Z,52.30
2018-06-08T16:36:51.102Z,52.50
2018-06-08T16:39:19.647Z,51.70
2018-06-08T16:41:48.298Z,52.00
2018-06-08T16:44:16.975Z,51.90
2018-06-08T16:49:13.864Z,52.50
2018-06-08T16:51:42.439Z,53.10
2018-06-08T16:54:11.047Z,53.30
2018-06-08T16:56:39.622Z,50.10
2018-06-08T16:59:08.220Z,51.00
2018-06-08T17:01:36.779Z,51.70
2018-06-08T17:04:05.378Z,52.20
2018-06-08T17:06:33.985Z,52.50
2018-06-08T17:09:02.634Z,52.60
2018-06-08T17:11:31.232Z,52.40
2018-06-08T17:13:59.858Z,52.70
2018-06-08T17:16:28.456Z,52.40
2018-06-08T17:18:57.045Z,52.60
2018-06-08T17:23:53.873Z,55.50
2018-06-08T17:26:22.418Z,56.40
2018-06-08T17:28:51.034Z,55.20
2018-06-08T17:31:19.665Z,55.00
2018-06-08T17:33:49.234Z,55.80
2018-06-08T17:36:17.821Z,56.10
2018-06-08T17:38:46.531Z,55.50
2018-06-08T17:41:15.112Z,55.90
2018-06-08T17:43:43.747Z,56.10
2018-06-08T17:46:12.314Z,60.20
2018-06-08T17:48:40.941Z,60.60
2018-06-08T17:51:09.557Z,61.20
2018-06-08T17:58:35.238Z,64.10
2018-06-08T18:01:03.867Z,65.40
2018-06-08T18:03:32.450Z,65.90
2018-06-08T18:08:29.478Z,66.00
2018-06-08T18:10:58.063Z,66.70
2018-06-08T18:13:26.675Z,67.30
2018-06-08T18:15:55.266Z,66.40
2018-06-08T18:20:52.066Z,68.70
2018-06-08T18:23:20.671Z,67.70
2018-06-08T18:25:49.292Z,66.20
2018-06-08T18:30:46.682Z,65.60
2018-06-08T18:33:15.251Z,67.10
2018-06-08T18:35:43.922Z,67.80
2018-06-08T18:38:12.578Z,67.30
2018-06-08T18:40:41.182Z,66.80
2018-06-08T18:43:09.756Z,66.90
2018-06-08T18:45:38.342Z,67.50
2018-06-08T18:48:06.923Z,68.20
2018-06-08T18:50:35.518Z,69.40
2018-06-08T18:53:04.099Z,68.60
2018-06-08T18:55:32.758Z,68.30
2018-06-08T18:58:01.376Z,68.30
2018-06-08T19:00:29.969Z,68.90
2018-06-08T19:02:58.556Z,70.50
2018-06-08T19:05:27.495Z,68.90
2018-06-08T19:07:56.784Z,68.90
2018-06-08T19:10:25.361Z,68.20
2018-06-08T19:12:53.946Z,60.10
2018-06-08T19:15:22.525Z,57.80
2018-06-08T19:17:51.134Z,58.80
2018-06-08T19:20:19.711Z,58.70
2018-06-08T19:22:48.291Z,61.60
2018-06-08T19:25:16.911Z,63.50
2018-06-08T19:27:45.462Z,66.50
2018-06-08T19:30:14.055Z,67.70
2018-06-08T19:32:42.692Z,69.10
2018-06-08T19:35:11.288Z,68.00
2018-06-08T19:37:39.833Z,67.20
2018-06-08T19:40:08.427Z,68.80
2018-06-08T19:42:37.019Z,69.80
2018-06-08T19:45:05.895Z,71.10
2018-06-08T19:47:34.470Z,73.90
2018-06-08T19:50:03.123Z,74.10
2018-06-08T19:52:31.726Z,72.20
2018-06-08T19:55:00.307Z,71.30
2018-06-08T19:57:28.930Z,70.40
2018-06-08T19:59:57.514Z,72.80
2018-06-08T20:02:27.035Z,71.30
2018-06-08T20:04:55.614Z,72.20
2018-06-08T20:07:24.205Z,72.70
2018-06-08T20:09:52.790Z,74.70
2018-06-08T20:12:21.405Z,77.00
2018-06-08T20:14:49.972Z,73.70
2018-06-08T20:17:18.576Z,76.60
2018-06-08T20:19:47.130Z,74.10
2018-06-08T20:22:15.730Z,75.40
2018-06-08T20:24:44.396Z,74.10
2018-06-08T20:27:13.023Z,74.50
2018-06-08T20:29:41.588Z,76.00
2018-06-08T20:32:10.191Z,76.50
2018-06-08T20:34:38.759Z,76.10
2018-06-08T20:37:07.359Z,75.60
2018-06-08T20:39:35.925Z,76.80
2018-06-08T20:42:04.524Z,77.80
2018-06-08T20:47:01.326Z,77.40
2018-06-08T20:49:29.900Z,77.00
2018-06-08T20:51:58.483Z,78.40
2018-06-08T20:54:27.073Z,76.60
2018-06-08T20:57:06.825Z,79.40
2018-06-08T20:59:35.404Z,76.60
2018-06-08T21:02:04.107Z,78.70
2018-06-08T21:04:32.670Z,78.00
2018-06-08T21:07:01.267Z,77.30
2018-06-08T21:09:29.830Z,77.30
2018-06-08T21:11:58.447Z,77.10
2018-06-08T21:14:27.009Z,78.20
2018-06-08T21:16:55.636Z,79.50
2018-06-08T21:19:24.205Z,81.10
2018-06-08T21:21:52.779Z,79.40
2018-06-08T21:24:21.343Z,78.00
2018-06-08T21:26:49.914Z,78.60
2018-06-08T21:29:18.537Z,79.40
2018-06-08T21:31:47.126Z,78.60
2018-06-08T21:34:15.715Z,77.90
2018-06-08T21:36:44.307Z,80.20
2018-06-08T21:39:12.907Z,77.10
2018-06-08T21:41:41.528Z,77.10
2018-06-08T21:44:10.131Z,77.10
2018-06-08T21:46:38.675Z,79.00
2018-06-08T21:49:07.300Z,78.90
2018-06-08T21:51:35.854Z,78.50
2018-06-08T21:54:04.462Z,79.20
2018-06-08T21:56:33.019Z,78.40
2018-06-08T21:59:01.592Z,82.50
2018-06-08T22:01:30.183Z,81.90
2018-06-08T22:03:58.809Z,82.20
2018-06-08T22:08:55.626Z,78.10
2018-06-08T22:11:24.211Z,79.30
2018-06-08T22:13:52.841Z,81.30
2018-06-08T22:16:21.441Z,83.40
2018-06-08T22:18:50.026Z,82.60
2018-06-08T22:21:18.590Z,79.80
2018-06-08T22:23:47.170Z,80.20
2018-06-08T22:26:15.794Z,80.40
2018-06-08T22:31:12.586Z,80.60
2018-06-08T22:33:41.163Z,79.90
2018-06-08T22:36:09.766Z,81.90
2018-06-08T22:38:38.342Z,79.20
2018-06-08T22:41:06.942Z,79.40
2018-06-08T22:43:35.534Z,79.60
2018-06-08T22:46:04.126Z,78.20
2018-06-08T22:48:32.702Z,81.30
2018-06-08T22:51:01.303Z,79.50
2018-06-08T22:53:29.858Z,80.50
2018-06-08T22:55:58.444Z,81.70
2018-06-08T22:58:27.030Z,79.20
2018-06-08T23:00:55.664Z,82.50
2018-06-08T23:03:24.199Z,80.50
2018-06-08T23:10:50.918Z,81.70
2018-06-08T23:13:19.499Z,79.40
2018-06-08T23:15:48.142Z,81.90
2018-06-08T23:18:16.698Z,80.10
2018-06-08T23:20:45.314Z,79.50
2018-06-08T23:23:13.895Z,82.70
2018-06-08T23:25:42.474Z,79.80
2018-06-08T23:28:11.054Z,81.20
2018-06-08T23:33:07.936Z,83.20
2018-06-08T23:35:36.510Z,81.80
2018-06-08T23:38:05.104Z,83.20
2018-06-08T23:40:33.690Z,79.70
2018-06-08T23:43:02.459Z,82.20
2018-06-08T23:45:31.010Z,82.60
2018-06-08T23:47:59.587Z,82.70
2018-06-08T23:52:56.455Z,81.60
2018-06-08T23:55:25.025Z,84.90
2018-06-08T23:57:53.631Z,81.10
